sensor_id;sensor_type;location;lat;lon;timestamp;pressure;altitude;pressure_sealevel;temperature;humidity
4576;BME280;2300;51.874;8.430;2022-12-24T00:01:29;99594.84;;;10.05;100.00
4576;BME280;2300;51.874;8.430;2022-12-24T00:03:56;99602.41;;;9.98;100.00
4576;BME280;2300;51.874;8.430;2022-12-24T00:09:41;99600.63;;;9.87;100.00
4576;BME280;2300;51.874;8.430;2022-12-24T00:12:08;99607.63;;;9.78;100.00
4576;BME280;2300;51.874;8.430;2022-12-24T00:14:43;99582.59;;;9.52;100.00
4576;BME280;2300;51.874;8.430;2022-12-24T00:17:10;99583.59;;;9.46;100.00
4576;BME280;2300;51.874;8.430;2022-12-24T00:19:51;99584.75;;;9.50;100.00
4576;BME280;2300;51.874;8.430;2022-12-24T00:22:18;99633.97;;;9.79;100.00
4576;BME280;2300;51.874;8.430;2022-12-24T00:24:49;99597.88;;;9.48;100.00
4576;BME280;2300;51.874;8.430;2022-12-24T00:27:19;99631.56;;;9.66;100.00
4576;BME280;2300;51.874;8.430;2022-12-24T00:29:47;99609.09;;;9.47;100.00
4576;BME280;2300;51.874;8.430;2022-12-24T00:32:14;99601.97;;;9.46;100.00
4576;BME280;2300;51.874;8.430;2022-12-24T00:34:41;99645.88;;;9.68;100.00
4576;BME280;2300;51.874;8.430;2022-12-24T00:37:10;99624.88;;;9.56;100.00
4576;BME280;2300;51.874;8.430;2022-12-24T00:39:38;99636.56;;;9.69;100.00
4576;BME280;2300;51.874;8.430;2022-12-24T00:42:07;99625.00;;;9.67;100.00
4576;BME280;2300;51.874;8.430;2022-12-24T00:44:34;99622.72;;;9.58;100.00
4576;BME280;2300;51.874;8.430;2022-12-24T00:47:01;99628.81;;;9.66;100.00
4576;BME280;2300;51.874;8.430;2022-12-24T00:49:29;99653.03;;;9.90;100.00
4576;BME280;2300;51.874;8.430;2022-12-24T00:51:56;99630.41;;;9.62;100.00
4576;BME280;2300;51.874;8.430;2022-12-24T00:54:23;99637.91;;;9.49;100.00
4576;BME280;2300;51.874;8.430;2022-12-24T00:56:52;99671.03;;;9.65;100.00
4576;BME280;2300;51.874;8.430;2022-12-24T00:59:21;99666.13;;;9.67;100.00
4576;BME280;2300;51.874;8.430;2022-12-24T01:01:48;99650.84;;;9.54;100.00
4576;BME280;2300;51.874;8.430;2022-12-24T01:04:15;99646.56;;;9.41;100.00
4576;BME280;2300;51.874;8.430;2022-12-24T01:06:59;99643.13;;;9.34;100.00
4576;BME280;2300;51.874;8.430;2022-12-24T01:09:27;99689.06;;;9.61;100.00
4576;BME280;2300;51.874;8.430;2022-12-24T01:11:55;99683.50;;;9.55;100.00
4576;BME280;2300;51.874;8.430;2022-12-24T01:14:29;99694.06;;;9.64;100.00
4576;BME280;2300;51.874;8.430;2022-12-24T01:16:59;99702.75;;;9.77;100.00
4576;BME280;2300;51.874;8.430;2022-12-24T01:19:30;99673.28;;;9.51;100.00
4576;BME280;2300;51.874;8.430;2022-12-24T01:21:57;99686.75;;;9.52;100.00
4576;BME280;2300;51.874;8.430;2022-12-24T01:24:46;99689.72;;;9.51;100.00
4576;BME280;2300;51.874;8.430;2022-12-24T01:27:13;99685.38;;;9.38;100.00
4576;BME280;2300;51.874;8.430;2022-12-24T01:29:52;99672.88;;;9.26;100.00
4576;BME280;2300;51.874;8.430;2022-12-24T01:32:20;99717.88;;;9.46;100.00
4576;BME280;2300;51.874;8.430;2022-12-24T01:34:47;99701.34;;;9.41;100.00
4576;BME280;2300;51.874;8.430;2022-12-24T01:37:15;99718.94;;;9.45;100.00
4576;BME280;2300;51.874;8.430;2022-12-24T01:39:42;99738.38;;;9.61;100.00
4576;BME280;2300;51.874;8.430;2022-12-24T01:42:16;99757.00;;;9.58;100.00
4576;BME280;2300;51.874;8.430;2022-12-24T01:45:38;99721.38;;;9.42;100.00
4576;BME280;2300;51.874;8.430;2022-12-24T01:48:13;99714.06;;;9.47;100.00
4576;BME280;2300;51.874;8.430;2022-12-24T01:50:43;99719.09;;;9.39;100.00
4576;BME280;2300;51.874;8.430;2022-12-24T01:53:17;99751.53;;;9.58;100.00
4576;BME280;2300;51.874;8.430;2022-12-24T01:55:44;99750.25;;;9.49;100.00
4576;BME280;2300;51.874;8.430;2022-12-24T01:58:13;99763.47;;;9.52;100.00
4576;BME280;2300;51.874;8.430;2022-12-24T02:00:43;99740.28;;;9.43;100.00
4576;BME280;2300;51.874;8.430;2022-12-24T02:03:10;99780.09;;;9.63;100.00
4576;BME280;2300;51.874;8.430;2022-12-24T02:05:41;99739.22;;;9.44;100.00
4576;BME280;2300;51.874;8.430;2022-12-24T02:08:12;99769.44;;;9.49;100.00
4576;BME280;2300;51.874;8.430;2022-12-24T02:10:40;99794.19;;;9.54;100.00
4576;BME280;2300;51.874;8.430;2022-12-24T02:13:07;99765.44;;;9.40;100.00
4576;BME280;2300;51.874;8.430;2022-12-24T02:15:41;99797.84;;;9.60;100.00
4576;BME280;2300;51.874;8.430;2022-12-24T02:18:45;99814.66;;;9.64;100.00
4576;BME280;2300;51.874;8.430;2022-12-24T02:22:04;99805.09;;;9.66;100.00
4576;BME280;2300;51.874;8.430;2022-12-24T02:25:03;99811.31;;;9.62;100.00
4576;BME280;2300;51.874;8.430;2022-12-24T02:27:45;99813.22;;;9.61;100.00
4576;BME280;2300;51.874;8.430;2022-12-24T02:30:30;99789.44;;;9.50;100.00
4576;BME280;2300;51.874;8.430;2022-12-24T02:33:06;99798.84;;;9.54;100.00
4576;BME280;2300;51.874;8.430;2022-12-24T02:35:43;99784.13;;;9.43;99.64
4576;BME280;2300;51.874;8.430;2022-12-24T02:38:15;99770.41;;;9.43;99.07
4576;BME280;2300;51.874;8.430;2022-12-24T02:40:47;99787.53;;;9.50;98.69
4576;BME280;2300;51.874;8.430;2022-12-24T02:43:19;99786.53;;;9.40;97.71
4576;BME280;2300;51.874;8.430;2022-12-24T02:45:52;99802.31;;;9.49;98.26
4576;BME280;2300;51.874;8.430;2022-12-24T02:48:22;99799.91;;;9.36;97.69
4576;BME280;2300;51.874;8.430;2022-12-24T02:50:57;99836.13;;;9.55;97.35
4576;BME280;2300;51.874;8.430;2022-12-24T02:54:05;99832.81;;;9.53;97.15
4576;BME280;2300;51.874;8.430;2022-12-24T02:56:43;99795.81;;;9.22;97.17
4576;BME280;2300;51.874;8.430;2022-12-24T02:59:41;99862.38;;;9.51;97.13
4576;BME280;2300;51.874;8.430;2022-12-24T03:02:23;99829.44;;;9.34;96.73
4576;BME280;2300;51.874;8.430;2022-12-24T03:05:07;99839.63;;;9.50;95.90
4576;BME280;2300;51.874;8.430;2022-12-24T03:07:41;99846.59;;;9.41;95.93
4576;BME280;2300;51.874;8.430;2022-12-24T03:10:18;99874.78;;;9.53;96.02
4576;BME280;2300;51.874;8.430;2022-12-24T03:12:59;99850.09;;;9.25;96.07
4576;BME280;2300;51.874;8.430;2022-12-24T03:15:33;99865.06;;;9.34;95.84
4576;BME280;2300;51.874;8.430;2022-12-24T03:18:02;99843.66;;;9.31;96.11
4576;BME280;2300;51.874;8.430;2022-12-24T03:20:36;99853.16;;;9.29;96.48
4576;BME280;2300;51.874;8.430;2022-12-24T03:23:35;99900.25;;;9.54;96.56
4576;BME280;2300;51.874;8.430;2022-12-24T03:26:05;99914.31;;;9.57;96.59
4576;BME280;2300;51.874;8.430;2022-12-24T03:28:33;99900.41;;;9.47;96.39
4576;BME280;2300;51.874;8.430;2022-12-24T03:31:03;99914.97;;;9.65;95.62
4576;BME280;2300;51.874;8.430;2022-12-24T03:33:32;99934.66;;;9.62;95.58
4576;BME280;2300;51.874;8.430;2022-12-24T03:35:59;99931.31;;;9.59;95.93
4576;BME280;2300;51.874;8.430;2022-12-24T03:38:25;99934.56;;;9.56;95.75
4576;BME280;2300;51.874;8.430;2022-12-24T03:40:52;99932.91;;;9.55;95.58
4576;BME280;2300;51.874;8.430;2022-12-24T03:43:18;99925.50;;;9.56;95.64
4576;BME280;2300;51.874;8.430;2022-12-24T03:45:45;99939.91;;;9.63;95.07
4576;BME280;2300;51.874;8.430;2022-12-24T03:48:11;99938.03;;;9.52;95.12
4576;BME280;2300;51.874;8.430;2022-12-24T03:50:39;99939.56;;;9.59;95.38
4576;BME280;2300;51.874;8.430;2022-12-24T03:53:05;99927.28;;;9.62;95.44
4576;BME280;2300;51.874;8.430;2022-12-24T03:55:32;99918.50;;;9.48;95.02
4576;BME280;2300;51.874;8.430;2022-12-24T03:57:58;99929.81;;;9.52;94.74
4576;BME280;2300;51.874;8.430;2022-12-24T04:00:25;99918.66;;;9.42;95.30
4576;BME280;2300;51.874;8.430;2022-12-24T04:02:52;99925.22;;;9.29;95.24
4576;BME280;2300;51.874;8.430;2022-12-24T04:05:19;99920.69;;;9.35;94.29
4576;BME280;2300;51.874;8.430;2022-12-24T04:07:47;99928.91;;;9.35;94.48
4576;BME280;2300;51.874;8.430;2022-12-24T04:10:14;99941.78;;;9.34;94.12
4576;BME280;2300;51.874;8.430;2022-12-24T04:12:41;99941.66;;;9.41;94.40
4576;BME280;2300;51.874;8.430;2022-12-24T04:15:08;99950.59;;;9.36;94.44
4576;BME280;2300;51.874;8.430;2022-12-24T04:17:35;99942.38;;;9.36;93.41
4576;BME280;2300;51.874;8.430;2022-12-24T04:20:02;99959.50;;;9.43;94.32
4576;BME280;2300;51.874;8.430;2022-12-24T04:22:29;99964.50;;;9.46;93.60
4576;BME280;2300;51.874;8.430;2022-12-24T04:24:58;99962.59;;;9.47;93.54
4576;BME280;2300;51.874;8.430;2022-12-24T04:27:24;99947.97;;;9.41;93.28
4576;BME280;2300;51.874;8.430;2022-12-24T04:29:50;99977.59;;;9.44;92.99
4576;BME280;2300;51.874;8.430;2022-12-24T04:32:17;99980.13;;;9.46;93.46
4576;BME280;2300;51.874;8.430;2022-12-24T04:34:43;99983.94;;;9.45;93.11
4576;BME280;2300;51.874;8.430;2022-12-24T04:37:10;99977.47;;;9.51;93.15
4576;BME280;2300;51.874;8.430;2022-12-24T04:39:36;99995.84;;;9.50;92.88
4576;BME280;2300;51.874;8.430;2022-12-24T04:42:04;99992.25;;;9.50;93.84
4576;BME280;2300;51.874;8.430;2022-12-24T04:44:30;99990.84;;;9.47;93.57
4576;BME280;2300;51.874;8.430;2022-12-24T04:46:57;100003.22;;;9.50;93.14
4576;BME280;2300;51.874;8.430;2022-12-24T04:49:23;100004.16;;;9.55;92.98
4576;BME280;2300;51.874;8.430;2022-12-24T04:51:50;100002.88;;;9.46;93.03
4576;BME280;2300;51.874;8.430;2022-12-24T04:54:16;100008.94;;;9.48;92.96
4576;BME280;2300;51.874;8.430;2022-12-24T04:56:43;100010.13;;;9.52;92.94
4576;BME280;2300;51.874;8.430;2022-12-24T04:59:10;100000.72;;;9.48;93.08
4576;BME280;2300;51.874;8.430;2022-12-24T05:01:37;100004.66;;;9.52;92.95
4576;BME280;2300;51.874;8.430;2022-12-24T05:04:03;100015.75;;;9.46;92.62
4576;BME280;2300;51.874;8.430;2022-12-24T05:06:31;100016.09;;;9.49;92.99
4576;BME280;2300;51.874;8.430;2022-12-24T05:08:58;100017.03;;;9.43;93.00
4576;BME280;2300;51.874;8.430;2022-12-24T05:11:25;100012.19;;;9.34;93.65
4576;BME280;2300;51.874;8.430;2022-12-24T05:13:52;100022.78;;;9.30;93.15
4576;BME280;2300;51.874;8.430;2022-12-24T05:16:22;100014.91;;;9.34;93.68
4576;BME280;2300;51.874;8.430;2022-12-24T05:18:49;100019.59;;;9.22;94.12
4576;BME280;2300;51.874;8.430;2022-12-24T05:21:18;100016.25;;;9.20;93.68
4576;BME280;2300;51.874;8.430;2022-12-24T05:23:44;100031.97;;;9.12;93.42
4576;BME280;2300;51.874;8.430;2022-12-24T05:26:31;100023.88;;;8.94;94.06
4576;BME280;2300;51.874;8.430;2022-12-24T05:29:00;100026.03;;;8.81;94.75
4576;BME280;2300;51.874;8.430;2022-12-24T05:31:30;100024.69;;;8.71;95.28
4576;BME280;2300;51.874;8.430;2022-12-24T05:33:57;100007.28;;;8.54;95.88
4576;BME280;2300;51.874;8.430;2022-12-24T05:36:24;100023.13;;;8.64;95.96
4576;BME280;2300;51.874;8.430;2022-12-24T05:38:51;100039.03;;;8.55;96.16
4576;BME280;2300;51.874;8.430;2022-12-24T05:41:17;100038.22;;;8.55;96.11
4576;BME280;2300;51.874;8.430;2022-12-24T05:43:44;100046.66;;;8.53;96.81
4576;BME280;2300;51.874;8.430;2022-12-24T05:46:13;100042.72;;;8.49;97.14
4576;BME280;2300;51.874;8.430;2022-12-24T05:48:41;100036.28;;;8.55;96.40
4576;BME280;2300;51.874;8.430;2022-12-24T05:51:09;100058.91;;;8.62;97.23
4576;BME280;2300;51.874;8.430;2022-12-24T05:53:36;100057.09;;;8.75;96.69
4576;BME280;2300;51.874;8.430;2022-12-24T05:56:04;100061.13;;;8.84;96.97
4576;BME280;2300;51.874;8.430;2022-12-24T05:58:31;100067.81;;;8.88;97.20
4576;BME280;2300;51.874;8.430;2022-12-24T06:00:57;100065.78;;;8.95;96.97
4576;BME280;2300;51.874;8.430;2022-12-24T06:03:24;100060.53;;;8.93;96.71
4576;BME280;2300;51.874;8.430;2022-12-24T06:05:59;100068.88;;;8.98;97.19
4576;BME280;2300;51.874;8.430;2022-12-24T06:08:26;100060.56;;;9.05;97.72
4576;BME280;2300;51.874;8.430;2022-12-24T06:10:55;100074.25;;;9.05;97.73
4576;BME280;2300;51.874;8.430;2022-12-24T06:13:22;100070.78;;;8.98;97.92
4576;BME280;2300;51.874;8.430;2022-12-24T06:15:48;100070.34;;;9.01;97.47
4576;BME280;2300;51.874;8.430;2022-12-24T06:18:15;100070.69;;;9.16;97.40
4576;BME280;2300;51.874;8.430;2022-12-24T06:20:41;100074.75;;;9.25;97.14
4576;BME280;2300;51.874;8.430;2022-12-24T06:23:09;100068.41;;;9.25;96.65
4576;BME280;2300;51.874;8.430;2022-12-24T06:25:35;100075.22;;;9.22;96.70
4576;BME280;2300;51.874;8.430;2022-12-24T06:28:02;100066.75;;;9.35;96.51
4576;BME280;2300;51.874;8.430;2022-12-24T06:30:29;100071.28;;;9.30;97.13
4576;BME280;2300;51.874;8.430;2022-12-24T06:32:55;100069.59;;;9.29;96.69
4576;BME280;2300;51.874;8.430;2022-12-24T06:35:21;100079.97;;;9.27;96.74
4576;BME280;2300;51.874;8.430;2022-12-24T06:37:48;100083.91;;;9.31;96.57
4576;BME280;2300;51.874;8.430;2022-12-24T06:40:16;100073.91;;;9.25;97.07
4576;BME280;2300;51.874;8.430;2022-12-24T06:42:42;100082.34;;;9.35;96.97
4576;BME280;2300;51.874;8.430;2022-12-24T06:45:09;100072.47;;;9.34;97.90
4576;BME280;2300;51.874;8.430;2022-12-24T06:47:36;100079.72;;;9.28;97.50
4576;BME280;2300;51.874;8.430;2022-12-24T06:50:03;100084.03;;;9.24;98.51
4576;BME280;2300;51.874;8.430;2022-12-24T06:52:29;100085.22;;;9.28;98.16
4576;BME280;2300;51.874;8.430;2022-12-24T06:54:56;100077.69;;;9.24;98.17
4576;BME280;2300;51.874;8.430;2022-12-24T06:57:23;100082.59;;;9.33;99.22
4576;BME280;2300;51.874;8.430;2022-12-24T06:59:50;100095.81;;;9.36;99.38
4576;BME280;2300;51.874;8.430;2022-12-24T07:02:16;100098.91;;;9.40;98.94
4576;BME280;2300;51.874;8.430;2022-12-24T07:04:42;100092.03;;;9.37;98.50
4576;BME280;2300;51.874;8.430;2022-12-24T07:07:09;100099.50;;;9.30;99.91
4576;BME280;2300;51.874;8.430;2022-12-24T07:09:35;100097.97;;;9.34;100.00
4576;BME280;2300;51.874;8.430;2022-12-24T07:12:02;100102.97;;;9.26;100.00
4576;BME280;2300;51.874;8.430;2022-12-24T07:14:30;100108.69;;;9.36;100.00
4576;BME280;2300;51.874;8.430;2022-12-24T07:16:57;100091.06;;;9.20;100.00
4576;BME280;2300;51.874;8.430;2022-12-24T07:19:23;100119.88;;;9.34;100.00
4576;BME280;2300;51.874;8.430;2022-12-24T07:21:50;100111.41;;;9.24;100.00
4576;BME280;2300;51.874;8.430;2022-12-24T07:24:16;100121.78;;;9.34;100.00
4576;BME280;2300;51.874;8.430;2022-12-24T07:26:44;100130.13;;;9.39;100.00
4576;BME280;2300;51.874;8.430;2022-12-24T07:29:10;100131.56;;;9.41;100.00
4576;BME280;2300;51.874;8.430;2022-12-24T07:31:38;100131.31;;;9.31;100.00
4576;BME280;2300;51.874;8.430;2022-12-24T07:34:04;100130.00;;;9.45;100.00
4576;BME280;2300;51.874;8.430;2022-12-24T07:36:31;100131.09;;;9.33;100.00
4576;BME280;2300;51.874;8.430;2022-12-24T07:38:57;100136.19;;;9.29;100.00
4576;BME280;2300;51.874;8.430;2022-12-24T07:41:24;100138.72;;;9.31;100.00
4576;BME280;2300;51.874;8.430;2022-12-24T07:43:50;100141.91;;;9.28;100.00
4576;BME280;2300;51.874;8.430;2022-12-24T07:46:16;100147.63;;;9.26;100.00
4576;BME280;2300;51.874;8.430;2022-12-24T07:48:44;100142.28;;;9.31;100.00
4576;BME280;2300;51.874;8.430;2022-12-24T07:51:11;100147.28;;;9.34;100.00
4576;BME280;2300;51.874;8.430;2022-12-24T07:53:37;100151.22;;;9.38;100.00
4576;BME280;2300;51.874;8.430;2022-12-24T07:56:04;100153.84;;;9.45;100.00
4576;BME280;2300;51.874;8.430;2022-12-24T07:58:30;100154.69;;;9.45;100.00
4576;BME280;2300;51.874;8.430;2022-12-24T08:00:57;100154.19;;;9.48;100.00
4576;BME280;2300;51.874;8.430;2022-12-24T08:03:24;100157.41;;;9.45;100.00
4576;BME280;2300;51.874;8.430;2022-12-24T08:05:52;100158.25;;;9.46;100.00
4576;BME280;2300;51.874;8.430;2022-12-24T08:08:18;100158.50;;;9.56;100.00
4576;BME280;2300;51.874;8.430;2022-12-24T08:10:46;100162.78;;;9.52;100.00
4576;BME280;2300;51.874;8.430;2022-12-24T08:13:12;100147.78;;;9.43;100.00
4576;BME280;2300;51.874;8.430;2022-12-24T08:15:39;100153.81;;;9.33;100.00
4576;BME280;2300;51.874;8.430;2022-12-24T08:18:06;100177.31;;;9.52;100.00
4576;BME280;2300;51.874;8.430;2022-12-24T08:20:32;100178.03;;;9.59;100.00
4576;BME280;2300;51.874;8.430;2022-12-24T08:23:00;100178.16;;;9.65;100.00
4576;BME280;2300;51.874;8.430;2022-12-24T08:25:26;100190.22;;;9.64;100.00
4576;BME280;2300;51.874;8.430;2022-12-24T08:27:53;100186.25;;;9.71;100.00
4576;BME280;2300;51.874;8.430;2022-12-24T08:30:19;100196.50;;;9.76;100.00
4576;BME280;2300;51.874;8.430;2022-12-24T08:32:46;100202.00;;;9.76;100.00
4576;BME280;2300;51.874;8.430;2022-12-24T08:35:12;100203.41;;;9.90;100.00
4576;BME280;2300;51.874;8.430;2022-12-24T08:37:38;100220.13;;;9.77;99.71
4576;BME280;2300;51.874;8.430;2022-12-24T08:40:08;100208.19;;;9.83;99.98
4576;BME280;2300;51.874;8.430;2022-12-24T08:42:35;100203.91;;;9.87;99.07
4576;BME280;2300;51.874;8.430;2022-12-24T08:45:02;100216.44;;;9.94;99.31
4576;BME280;2300;51.874;8.430;2022-12-24T08:47:28;100214.38;;;9.90;99.12
4576;BME280;2300;51.874;8.430;2022-12-24T08:49:54;100220.59;;;9.97;99.08
4576;BME280;2300;51.874;8.430;2022-12-24T08:52:21;100226.06;;;9.97;98.63
4576;BME280;2300;51.874;8.430;2022-12-24T08:54:47;100237.28;;;9.95;98.78
4576;BME280;2300;51.874;8.430;2022-12-24T08:57:15;100245.13;;;9.80;98.64
4576;BME280;2300;51.874;8.430;2022-12-24T08:59:41;100251.81;;;9.96;98.42
4576;BME280;2300;51.874;8.430;2022-12-24T09:02:08;100250.63;;;9.92;98.09
4576;BME280;2300;51.874;8.430;2022-12-24T09:04:37;100220.72;;;9.79;97.91
4576;BME280;2300;51.874;8.430;2022-12-24T09:07:04;100248.63;;;9.99;97.61
4576;BME280;2300;51.874;8.430;2022-12-24T09:09:31;100243.97;;;9.88;97.09
4576;BME280;2300;51.874;8.430;2022-12-24T09:11:57;100253.03;;;10.00;96.80
4576;BME280;2300;51.874;8.430;2022-12-24T09:14:25;100268.06;;;10.09;97.08
4576;BME280;2300;51.874;8.430;2022-12-24T09:16:51;100262.56;;;10.09;96.94
4576;BME280;2300;51.874;8.430;2022-12-24T09:19:18;100279.25;;;9.96;97.00
4576;BME280;2300;51.874;8.430;2022-12-24T09:21:44;100272.22;;;9.88;97.68
4576;BME280;2300;51.874;8.430;2022-12-24T09:24:11;100280.56;;;9.93;97.42
4576;BME280;2300;51.874;8.430;2022-12-24T09:26:40;100280.81;;;9.92;97.15
4576;BME280;2300;51.874;8.430;2022-12-24T09:29:07;100289.28;;;10.02;96.68
4576;BME280;2300;51.874;8.430;2022-12-24T09:31:36;100294.16;;;10.12;97.04
4576;BME280;2300;51.874;8.430;2022-12-24T09:34:02;100291.44;;;10.00;96.69
4576;BME280;2300;51.874;8.430;2022-12-24T09:36:29;100306.47;;;10.09;96.92
4576;BME280;2300;51.874;8.430;2022-12-24T09:38:55;100307.41;;;10.03;96.62
4576;BME280;2300;51.874;8.430;2022-12-24T09:41:32;100317.66;;;10.19;96.53
4576;BME280;2300;51.874;8.430;2022-12-24T09:44:16;100321.97;;;10.15;96.48
4576;BME280;2300;51.874;8.430;2022-12-24T09:46:46;100323.28;;;10.13;96.00
4576;BME280;2300;51.874;8.430;2022-12-24T09:49:17;100331.28;;;10.14;96.40
4576;BME280;2300;51.874;8.430;2022-12-24T09:51:48;100342.13;;;10.21;95.46
4576;BME280;2300;51.874;8.430;2022-12-24T09:54:19;100340.00;;;10.34;94.98
4576;BME280;2300;51.874;8.430;2022-12-24T09:56:49;100323.38;;;10.06;95.17
4576;BME280;2300;51.874;8.430;2022-12-24T09:59:19;100344.88;;;10.21;95.19
4576;BME280;2300;51.874;8.430;2022-12-24T10:01:49;100345.38;;;10.29;94.91
4576;BME280;2300;51.874;8.430;2022-12-24T10:04:18;100339.06;;;10.29;93.53
4576;BME280;2300;51.874;8.430;2022-12-24T10:06:49;100336.66;;;10.21;93.74
4576;BME280;2300;51.874;8.430;2022-12-24T10:09:23;100356.34;;;10.29;93.67
4576;BME280;2300;51.874;8.430;2022-12-24T10:11:59;100337.84;;;10.36;93.19
4576;BME280;2300;51.874;8.430;2022-12-24T10:14:40;100349.91;;;10.35;93.18
4576;BME280;2300;51.874;8.430;2022-12-24T10:17:29;100345.63;;;10.51;92.22
4576;BME280;2300;51.874;8.430;2022-12-24T10:20:12;100348.69;;;10.31;92.28
4576;BME280;2300;51.874;8.430;2022-12-24T10:22:51;100350.63;;;10.42;91.89
4576;BME280;2300;51.874;8.430;2022-12-24T10:25:25;100352.19;;;10.50;92.25
4576;BME280;2300;51.874;8.430;2022-12-24T10:27:54;100360.19;;;10.52;92.14
4576;BME280;2300;51.874;8.430;2022-12-24T10:30:23;100357.16;;;10.53;91.62
4576;BME280;2300;51.874;8.430;2022-12-24T10:32:52;100338.69;;;10.49;91.59
4576;BME280;2300;51.874;8.430;2022-12-24T10:35:22;100356.22;;;10.59;91.30
4576;BME280;2300;51.874;8.430;2022-12-24T10:37:50;100361.47;;;10.72;91.30
4576;BME280;2300;51.874;8.430;2022-12-24T10:40:26;100363.72;;;10.87;90.48
4576;BME280;2300;51.874;8.430;2022-12-24T10:42:55;100351.66;;;10.88;89.65
4576;BME280;2300;51.874;8.430;2022-12-24T10:45:24;100365.00;;;10.96;89.72
4576;BME280;2300;51.874;8.430;2022-12-24T10:47:56;100369.53;;;10.91;89.06
4576;BME280;2300;51.874;8.430;2022-12-24T10:50:30;100364.56;;;10.76;88.33
4576;BME280;2300;51.874;8.430;2022-12-24T10:53:03;100374.44;;;10.89;88.42
4576;BME280;2300;51.874;8.430;2022-12-24T10:55:32;100364.25;;;11.01;88.24
4576;BME280;2300;51.874;8.430;2022-12-24T10:58:00;100367.88;;;10.90;88.18
4576;BME280;2300;51.874;8.430;2022-12-24T11:00:28;100370.16;;;10.81;87.83
4576;BME280;2300;51.874;8.430;2022-12-24T11:03:20;100370.88;;;10.88;88.15
4576;BME280;2300;51.874;8.430;2022-12-24T11:05:58;100367.75;;;10.73;88.43
4576;BME280;2300;51.874;8.430;2022-12-24T11:08:25;100385.69;;;10.87;88.53
4576;BME280;2300;51.874;8.430;2022-12-24T11:10:55;100374.53;;;10.94;88.88
4576;BME280;2300;51.874;8.430;2022-12-24T11:13:24;100381.16;;;10.81;87.77
4576;BME280;2300;51.874;8.430;2022-12-24T11:16:00;100386.75;;;10.86;87.69
4576;BME280;2300;51.874;8.430;2022-12-24T11:18:30;100396.16;;;10.90;87.23
4576;BME280;2300;51.874;8.430;2022-12-24T11:20:57;100380.88;;;10.94;87.48
4576;BME280;2300;51.874;8.430;2022-12-24T11:23:25;100387.41;;;11.05;87.63
4576;BME280;2300;51.874;8.430;2022-12-24T11:25:53;100389.16;;;11.22;87.76
4576;BME280;2300;51.874;8.430;2022-12-24T11:28:22;100382.34;;;11.25;86.67
4576;BME280;2300;51.874;8.430;2022-12-24T11:30:58;100381.78;;;11.11;87.60
4576;BME280;2300;51.874;8.430;2022-12-24T11:33:26;100373.38;;;11.30;87.85
4576;BME280;2300;51.874;8.430;2022-12-24T11:36:05;100359.75;;;11.35;87.85
4576;BME280;2300;51.874;8.430;2022-12-24T11:38:33;100366.66;;;11.37;87.51
4576;BME280;2300;51.874;8.430;2022-12-24T11:41:09;100369.81;;;11.46;87.09
4576;BME280;2300;51.874;8.430;2022-12-24T11:43:40;100363.94;;;11.54;87.12
4576;BME280;2300;51.874;8.430;2022-12-24T11:46:19;100371.91;;;11.39;87.04
4576;BME280;2300;51.874;8.430;2022-12-24T11:48:46;100369.69;;;11.24;87.44
4576;BME280;2300;51.874;8.430;2022-12-24T11:51:32;100372.25;;;11.42;86.95
4576;BME280;2300;51.874;8.430;2022-12-24T11:54:05;100362.69;;;11.45;87.30
4576;BME280;2300;51.874;8.430;2022-12-24T11:56:39;100359.53;;;11.53;86.92
4576;BME280;2300;51.874;8.430;2022-12-24T11:59:15;100375.88;;;11.59;86.43
4576;BME280;2300;51.874;8.430;2022-12-24T12:01:51;100378.34;;;11.61;86.69
4576;BME280;2300;51.874;8.430;2022-12-24T12:04:23;100382.81;;;11.34;86.34
4576;BME280;2300;51.874;8.430;2022-12-24T12:06:54;100389.38;;;11.33;86.63
4576;BME280;2300;51.874;8.430;2022-12-24T12:09:26;100378.44;;;11.09;86.49
4576;BME280;2300;51.874;8.430;2022-12-24T12:12:00;100375.13;;;11.07;87.09
4576;BME280;2300;51.874;8.430;2022-12-24T12:14:34;100387.28;;;11.11;86.96
4576;BME280;2300;51.874;8.430;2022-12-24T12:17:09;100372.41;;;10.96;87.19
4576;BME280;2300;51.874;8.430;2022-12-24T12:19:42;100395.03;;;11.14;86.51
4576;BME280;2300;51.874;8.430;2022-12-24T12:22:19;100387.03;;;11.24;86.25
4576;BME280;2300;51.874;8.430;2022-12-24T12:24:52;100375.00;;;11.02;86.02
4576;BME280;2300;51.874;8.430;2022-12-24T12:27:26;100390.63;;;11.13;85.57
4576;BME280;2300;51.874;8.430;2022-12-24T12:29:56;100398.28;;;11.11;85.88
4576;BME280;2300;51.874;8.430;2022-12-24T12:32:27;100400.69;;;11.08;86.05
4576;BME280;2300;51.874;8.430;2022-12-24T12:35:04;100393.69;;;11.28;85.73
4576;BME280;2300;51.874;8.430;2022-12-24T12:37:53;100403.22;;;11.38;85.48
4576;BME280;2300;51.874;8.430;2022-12-24T12:40:29;100402.25;;;11.44;85.10
4576;BME280;2300;51.874;8.430;2022-12-24T12:43:03;100392.78;;;11.11;85.01
4576;BME280;2300;51.874;8.430;2022-12-24T12:45:38;100393.28;;;11.08;85.91
4576;BME280;2300;51.874;8.430;2022-12-24T12:48:16;100401.84;;;11.23;85.75
4576;BME280;2300;51.874;8.430;2022-12-24T12:50:51;100391.94;;;11.11;85.71
4576;BME280;2300;51.874;8.430;2022-12-24T12:53:31;100408.88;;;11.19;85.21
4576;BME280;2300;51.874;8.430;2022-12-24T12:56:09;100416.78;;;11.16;85.61
4576;BME280;2300;51.874;8.430;2022-12-24T12:58:44;100418.25;;;11.07;85.75
4576;BME280;2300;51.874;8.430;2022-12-24T13:01:16;100427.31;;;11.07;86.43
4576;BME280;2300;51.874;8.430;2022-12-24T13:03:59;100424.94;;;10.99;86.43
4576;BME280;2300;51.874;8.430;2022-12-24T13:06:48;100430.06;;;11.07;86.45
4576;BME280;2300;51.874;8.430;2022-12-24T13:09:54;100429.47;;;11.05;86.35
4576;BME280;2300;51.874;8.430;2022-12-24T13:12:38;100435.28;;;11.20;86.07
4576;BME280;2300;51.874;8.430;2022-12-24T13:15:25;100435.78;;;11.17;86.32
4576;BME280;2300;51.874;8.430;2022-12-24T13:18:06;100447.63;;;11.18;85.89
4576;BME280;2300;51.874;8.430;2022-12-24T13:20:41;100450.03;;;11.03;86.05
4576;BME280;2300;51.874;8.430;2022-12-24T13:23:14;100449.91;;;10.98;86.31
4576;BME280;2300;51.874;8.430;2022-12-24T13:25:45;100436.44;;;10.84;86.15
4576;BME280;2300;51.874;8.430;2022-12-24T13:28:30;100451.72;;;11.04;86.93
4576;BME280;2300;51.874;8.430;2022-12-24T13:31:24;100456.25;;;10.98;86.74
4576;BME280;2300;51.874;8.430;2022-12-24T13:33:55;100447.78;;;10.88;87.19
4576;BME280;2300;51.874;8.430;2022-12-24T13:36:22;100457.31;;;10.97;86.41
4576;BME280;2300;51.874;8.430;2022-12-24T13:38:50;100463.53;;;10.93;86.74
4576;BME280;2300;51.874;8.430;2022-12-24T13:41:37;100469.03;;;10.93;86.28
4576;BME280;2300;51.874;8.430;2022-12-24T13:44:14;100465.47;;;10.92;84.81